Time,TemperatureF,DewpointF,PressureIn,WindDirection,WindDirectionDegrees,WindSpeedMPH,WindSpeedGustMPH,Humidity,HourlyPrecipIn,Conditions,Clouds,dailyrainin,SoftwareType,DateUTC
2013-03-15 00:03:00,27.0,14.0,29.91,NW,310,14.0,18.0,58,-99.99,,,-99.99,,2013-03-15 04:03:00,
2013-03-15 00:12:00,27.0,14.0,29.91,WNW,300,15.0,24.0,58,-99.99,,,-99.99,,2013-03-15 04:12:00,
2013-03-15 00:23:00,27.0,12.0,29.91,NW,320,15.0,28.0,54,-99.99,,,-99.99,,2013-03-15 04:23:00,
2013-03-15 00:33:00,27.0,12.0,29.91,NW,310,12.0,27.0,54,-99.99,,,-99.99,,2013-03-15 04:33:00,
2013-03-15 00:43:00,27.0,12.0,29.92,NNW,330,12.0,18.0,54,-99.99,,,-99.99,,2013-03-15 04:43:00,
2013-03-15 00:52:00,27.0,12.0,29.92,NW,320,14.0,20.0,54,-99.99,,,-99.99,,2013-03-15 04:52:00,
2013-03-15 01:02:00,27.0,12.0,29.92,NW,320,14.0,20.0,54,-99.99,,,-99.99,,2013-03-15 05:02:00,
2013-03-15 01:12:00,27.0,12.0,29.92,NNW,330,12.0,22.0,54,-99.99,,,-99.99,,2013-03-15 05:12:00,
2013-03-15 01:22:00,27.0,10.0,29.92,NNW,330,12.0,22.0,49,-99.99,,,-99.99,,2013-03-15 05:22:00,
2013-03-15 01:32:00,25.0,10.0,29.93,NNW,330,10.0,20.0,53,-99.99,,,-99.99,,2013-03-15 05:32:00,
2013-03-15 01:42:00,25.0,10.0,29.93,NW,320,12.0,20.0,53,-99.99,,,-99.99,,2013-03-15 05:42:00,
2013-03-15 01:52:00,25.0,10.0,29.94,NNW,340,9.0,-999.0,53,-99.99,,,-99.99,,2013-03-15 05:52:00,
2013-03-15 02:02:00,25.0,10.0,29.94,NNW,340,9.0,-999.0,53,-99.99,,,-99.99,,2013-03-15 06:02:00,
2013-03-15 02:12:00,25.0,10.0,29.94,NNW,330,12.0,20.0,53,-99.99,,,-99.99,,2013-03-15 06:12:00,
2013-03-15 02:22:00,25.0,9.0,29.94,NNW,340,9.0,17.0,49,-99.99,,,-99.99,,2013-03-15 06:22:00,
2013-03-15 02:32:00,25.0,9.0,29.94,North,0,0.0,-999.0,49,-99.99,,,-99.99,,2013-03-15 06:32:00,
2013-03-15 02:42:00,25.0,9.0,29.94,NNW,340,9.0,-999.0,49,-99.99,,,-99.99,,2013-03-15 06:42:00,
2013-03-15 02:52:00,25.0,9.0,29.94,North,10,5.0,-999.0,49,-99.99,,,-99.99,,2013-03-15 06:52:00,
2013-03-15 03:02:00,25.0,9.0,29.94,North,10,5.0,-999.0,49,-99.99,,,-99.99,,2013-03-15 07:02:00,
2013-03-15 03:12:00,25.0,9.0,29.94,NW,320,12.0,16.0,49,-99.99,,,-99.99,,2013-03-15 07:12:00,
2013-03-15 03:22:00,23.0,9.0,29.94,NNW,340,5.0,-999.0,53,-99.99,,,-99.99,,2013-03-15 07:22:00,
2013-03-15 03:32:00,23.0,9.0,29.94,North,0,0.0,-999.0,53,-99.99,,,-99.99,,2013-03-15 07:32:00,
2013-03-15 03:42:00,21.0,7.0,29.94,North,0,0.0,-999.0,53,-99.99,,,-99.99,,2013-03-15 07:42:00,
2013-03-15 03:52:00,23.0,7.0,29.93,North,0,0.0,-999.0,49,-99.99,,,-99.99,,2013-03-15 07:52:00,
2013-03-15 04:02:00,23.0,7.0,29.93,North,0,0.0,-999.0,49,-99.99,,,-99.99,,2013-03-15 08:02:00,
2013-03-15 04:12:00,21.0,9.0,29.93,West,260,6.0,-999.0,57,-99.99,,,-99.99,,2013-03-15 08:12:00,
2013-03-15 04:23:00,21.0,9.0,29.93,NW,310,6.0,-999.0,57,-99.99,,,-99.99,,2013-03-15 08:23:00,
2013-03-15 04:33:00,21.0,9.0,29.93,NW,310,8.0,-999.0,57,-99.99,,,-99.99,,2013-03-15 08:33:00,
2013-03-15 04:42:00,21.0,9.0,29.92,NW,320,9.0,-999.0,57,-99.99,,,-99.99,,2013-03-15 08:42:00,
2013-03-15 04:52:00,21.0,9.0,29.93,NNW,330,5.0,-999.0,57,-99.99,,,-99.99,,2013-03-15 08:52:00,
2013-03-15 05:02:00,21.0,9.0,29.93,NNW,330,5.0,-999.0,57,-99.99,,,-99.99,,2013-03-15 09:02:00,
2013-03-15 05:12:00,21.0,9.0,29.93,North,10,3.0,-999.0,57,-99.99,,,-99.99,,2013-03-15 09:12:00,
2013-03-15 05:22:00,21.0,9.0,29.93,North,10,3.0,-999.0,57,-99.99,,,-99.99,,2013-03-15 09:22:00,
2013-03-15 05:33:00,21.0,9.0,29.93,NW,310,6.0,-999.0,57,-99.99,,,-99.99,,2013-03-15 09:33:00,
2013-03-15 05:43:00,21.0,9.0,29.93,NW,310,6.0,-999.0,57,-99.99,,,-99.99,,2013-03-15 09:43:00,
2013-03-15 05:52:00,19.0,9.0,29.92,WNW,290,6.0,-999.0,62,-99.99,,,-99.99,,2013-03-15 09:52:00,
2013-03-15 06:03:00,19.0,9.0,29.92,WNW,290,6.0,-999.0,62,-99.99,,,-99.99,,2013-03-15 10:03:00,
2013-03-15 06:12:00,19.0,9.0,29.92,WNW,290,9.0,-999.0,62,-99.99,,,-99.99,,2013-03-15 10:12:00,
2013-03-15 06:23:00,19.0,9.0,29.92,WNW,290,7.0,-999.0,62,-99.99,,,-99.99,,2013-03-15 10:23:00,
2013-03-15 06:33:00,19.0,9.0,29.91,NW,320,5.0,-999.0,62,-99.99,,,-99.99,,2013-03-15 10:33:00,
2013-03-15 06:42:00,19.0,9.0,29.91,NNW,340,5.0,-999.0,62,-99.99,,,-99.99,,2013-03-15 10:42:00,
2013-03-15 06:52:00,19.0,9.0,29.91,North,0,0.0,-999.0,62,-99.99,,,-99.99,,2013-03-15 10:52:00,
2013-03-15 07:03:00,19.0,9.0,29.91,North,0,0.0,-999.0,62,-99.99,,,-99.99,,2013-03-15 11:03:00,
2013-03-15 07:12:00,19.0,9.0,29.91,North,360,3.0,-999.0,62,-99.99,,,-99.99,,2013-03-15 11:12:00,
2013-03-15 07:22:00,19.0,9.0,29.90,NW,310,7.0,-999.0,62,-99.99,,,-99.99,,2013-03-15 11:22:00,
2013-03-15 07:32:00,19.0,9.0,29.90,WNW,290,7.0,-999.0,62,-99.99,,,-99.99,,2013-03-15 11:32:00,
2013-03-15 07:42:00,19.0,9.0,29.90,WNW,290,6.0,-999.0,62,-99.99,,,-99.99,,2013-03-15 11:42:00,
2013-03-15 07:52:00,19.0,9.0,29.90,West,280,6.0,-999.0,62,-99.99,,,-99.99,,2013-03-15 11:52:00,
2013-03-15 08:02:00,19.0,9.0,29.90,West,280,6.0,-999.0,62,-99.99,,,-99.99,,2013-03-15 12:02:00,
2013-03-15 08:12:00,21.0,10.0,29.89,NW,310,6.0,-999.0,62,-99.99,,,-99.99,,2013-03-15 12:12:00,
2013-03-15 08:23:00,21.0,9.0,29.89,NW,310,5.0,-999.0,57,-99.99,,,-99.99,,2013-03-15 12:23:00,
2013-03-15 08:32:00,21.0,9.0,29.88,WNW,300,7.0,-999.0,57,-99.99,,,-99.99,,2013-03-15 12:32:00,
2013-03-15 08:42:00,23.0,9.0,29.88,NW,310,7.0,-999.0,53,-99.99,,,-99.99,,2013-03-15 12:42:00,
2013-03-15 08:52:00,23.0,10.0,29.88,NW,310,5.0,-999.0,57,-99.99,,,-99.99,,2013-03-15 12:52:00,
2013-03-15 09:02:00,23.0,10.0,29.88,NW,310,5.0,-999.0,57,-99.99,,,-99.99,,2013-03-15 13:02:00,
2013-03-15 09:12:00,25.0,10.0,29.87,NW,310,6.0,-999.0,53,-99.99,,,-99.99,,2013-03-15 13:12:00,
2013-03-15 09:22:00,25.0,10.0,29.87,North,10,3.0,-999.0,53,-99.99,,,-99.99,,2013-03-15 13:22:00,
2013-03-15 09:32:00,27.0,10.0,29.86,North,0,0.0,-999.0,49,-99.99,,,-99.99,,2013-03-15 13:32:00,
2013-03-15 09:42:00,27.0,10.0,29.87,North,0,0.0,-999.0,49,-99.99,,,-99.99,,2013-03-15 13:42:00,
2013-03-15 09:52:00,27.0,10.0,29.86,North,0,0.0,-999.0,49,-99.99,,,-99.99,,2013-03-15 13:52:00,
2013-03-15 10:02:00,27.0,10.0,29.86,North,0,0.0,-999.0,49,-99.99,,,-99.99,,2013-03-15 14:02:00,
2013-03-15 10:11:00,28.0,12.0,29.85,North,0,0.0,-999.0,50,-99.99,,,-99.99,,2013-03-15 14:11:00,
2013-03-15 10:32:00,30.0,12.0,29.84,SE,130,3.0,-999.0,46,-99.99,,,-99.99,,2013-03-15 14:32:00,
2013-03-15 10:41:00,30.0,14.0,29.84,South,190,5.0,-999.0,50,-99.99,,,-99.99,,2013-03-15 14:41:00,
2013-03-15 10:51:00,30.0,14.0,29.82,SW,220,5.0,-999.0,50,-99.99,,,-99.99,,2013-03-15 14:51:00,
2013-03-15 11:02:00,30.0,14.0,29.82,SW,220,5.0,-999.0,50,-99.99,,,-99.99,,2013-03-15 15:02:00,
2013-03-15 11:13:00,30.0,16.0,29.81,NNW,330,5.0,-999.0,54,-99.99,,,-99.99,,2013-03-15 15:13:00,
2013-03-15 11:23:00,32.0,16.0,29.80,WSW,240,8.0,-999.0,50,-99.99,,,-99.99,,2013-03-15 15:23:00,
2013-03-15 11:33:00,32.0,14.0,29.79,SW,230,3.0,-999.0,46,-99.99,,,-99.99,,2013-03-15 15:33:00,
2013-03-15 11:42:00,32.0,16.0,29.79,South,190,6.0,-999.0,50,-99.99,,,-99.99,,2013-03-15 15:42:00,
2013-03-15 11:52:00,34.0,16.0,29.78,SE,130,5.0,-999.0,47,-99.99,,,-99.99,,2013-03-15 15:52:00,
2013-03-15 12:03:00,34.0,16.0,29.78,SE,130,5.0,-999.0,47,-99.99,,,-99.99,,2013-03-15 16:03:00,
2013-03-15 12:12:00,34.0,16.0,29.77,SE,130,6.0,-999.0,47,-99.99,,,-99.99,,2013-03-15 16:12:00,
2013-03-15 12:22:00,34.0,14.0,29.76,SE,140,5.0,-999.0,43,-99.99,,,-99.99,,2013-03-15 16:22:00,
2013-03-15 12:32:00,34.0,16.0,29.75,South,180,8.0,-999.0,47,-99.99,,,-99.99,,2013-03-15 16:32:00,
2013-03-15 12:41:00,36.0,14.0,29.74,South,190,9.0,-999.0,40,-99.99,,,-99.99,,2013-03-15 16:41:00,
2013-03-15 12:52:00,36.0,16.0,29.74,South,170,6.0,-999.0,43,-99.99,,,-99.99,,2013-03-15 16:52:00,
2013-03-15 13:02:00,36.0,16.0,29.74,South,170,6.0,-999.0,43,-99.99,,,-99.99,,2013-03-15 17:02:00,
2013-03-15 13:12:00,34.0,16.0,29.74,SE,140,5.0,-999.0,47,-99.99,,,-99.99,,2013-03-15 17:12:00,
2013-03-15 13:22:00,34.0,16.0,29.73,SE,140,3.0,-999.0,47,-99.99,,,-99.99,,2013-03-15 17:22:00,
2013-03-15 13:32:00,34.0,18.0,29.73,SSE,160,7.0,-999.0,51,-99.99,,,-99.99,,2013-03-15 17:32:00,
2013-03-15 13:42:00,34.0,19.0,29.72,ESE,120,5.0,-999.0,55,-99.99,,,-99.99,,2013-03-15 17:42:00,
2013-03-15 13:52:00,34.0,19.0,29.72,South,170,6.0,-999.0,55,-99.99,,,-99.99,,2013-03-15 17:52:00,
2013-03-15 14:03:00,34.0,19.0,29.72,South,170,6.0,-999.0,55,-99.99,,,-99.99,,2013-03-15 18:03:00,
2013-03-15 14:11:00,34.0,19.0,29.71,South,170,7.0,-999.0,55,-99.99,,,-99.99,,2013-03-15 18:11:00,
2013-03-15 14:21:00,32.0,21.0,29.70,SSW,210,6.0,-999.0,63,-99.99,,,-99.99,,2013-03-15 18:21:00,
2013-03-15 14:41:00,34.0,23.0,29.69,North,0,0.0,-999.0,64,-99.99,,,-99.99,,2013-03-15 18:41:00,
2013-03-15 14:51:00,34.0,25.0,29.68,SE,130,5.0,-999.0,69,-99.99,,,-99.99,,2013-03-15 18:51:00,
2013-03-15 15:02:00,34.0,25.0,29.68,SE,130,5.0,-999.0,69,-99.99,,,-99.99,,2013-03-15 19:02:00,
2013-03-15 15:12:00,34.0,27.0,29.67,SSE,160,5.0,-999.0,74,-99.99,,,-99.99,,2013-03-15 19:12:00,
2013-03-15 15:22:00,34.0,28.0,29.67,SSW,200,7.0,-999.0,80,-99.99,,,-99.99,,2013-03-15 19:22:00,
2013-03-15 15:32:00,34.0,28.0,29.66,South,190,6.0,-999.0,80,-99.99,,,-99.99,,2013-03-15 19:32:00,
2013-03-15 15:42:00,34.0,28.0,29.66,SSW,200,6.0,-999.0,80,-99.99,,,-99.99,,2013-03-15 19:42:00,
2013-03-15 15:52:00,34.0,30.0,29.66,SSW,200,7.0,-999.0,86,-99.99,,,-99.99,,2013-03-15 19:52:00,
2013-03-15 16:02:00,34.0,30.0,29.66,SSW,200,7.0,-999.0,86,-99.99,,,-99.99,,2013-03-15 20:02:00,
2013-03-15 16:12:00,36.0,30.0,29.66,SSW,200,7.0,-999.0,80,-99.99,,,-99.99,,2013-03-15 20:12:00,
2013-03-15 16:22:00,36.0,30.0,29.65,SSW,200,5.0,-999.0,80,-99.99,,,-99.99,,2013-03-15 20:22:00,
2013-03-15 16:32:00,36.0,30.0,29.65,SSW,200,5.0,-999.0,80,-99.99,,,-99.99,,2013-03-15 20:32:00,
2013-03-15 16:42:00,36.0,30.0,29.65,SSW,200,5.0,-999.0,80,-99.99,,,-99.99,,2013-03-15 20:42:00,
2013-03-15 16:52:00,36.0,30.0,29.65,WSW,240,6.0,-999.0,80,-99.99,,,-99.99,,2013-03-15 20:52:00,
2013-03-15 17:02:00,36.0,30.0,29.65,WSW,240,6.0,-999.0,80,-99.99,,,-99.99,,2013-03-15 21:02:00,
2013-03-15 17:12:00,36.0,28.0,29.65,WSW,250,7.0,-999.0,74,-99.99,,,-99.99,,2013-03-15 21:12:00,
2013-03-15 17:22:00,36.0,28.0,29.64,WSW,250,14.0,21.0,74,-99.99,,,-99.99,,2013-03-15 21:22:00,
2013-03-15 17:33:00,36.0,28.0,29.64,WSW,250,8.0,21.0,74,-99.99,,,-99.99,,2013-03-15 21:33:00,
2013-03-15 17:43:00,36.0,30.0,29.64,WSW,240,10.0,-999.0,80,-99.99,,,-99.99,,2013-03-15 21:43:00,
2013-03-15 17:52:00,36.0,30.0,29.64,WSW,240,9.0,-999.0,80,-99.99,,,-99.99,,2013-03-15 21:52:00,
2013-03-15 18:04:00,36.0,30.0,29.64,WSW,240,9.0,-999.0,80,-99.99,,,-99.99,,2013-03-15 22:04:00,
2013-03-15 18:13:00,36.0,30.0,29.64,WSW,250,9.0,-999.0,80,-99.99,,,-99.99,,2013-03-15 22:13:00,
2013-03-15 18:22:00,37.0,28.0,29.64,West,260,12.0,17.0,69,-99.99,,,-99.99,,2013-03-15 22:22:00,
2013-03-15 18:32:00,36.0,28.0,29.64,West,270,13.0,17.0,74,-99.99,,,-99.99,,2013-03-15 22:32:00,
2013-03-15 18:42:00,36.0,28.0,29.64,West,260,12.0,17.0,74,-99.99,,,-99.99,,2013-03-15 22:42:00,
2013-03-15 18:52:00,37.0,27.0,29.64,WSW,250,14.0,18.0,64,-99.99,,,-99.99,,2013-03-15 22:52:00,
2013-03-15 19:03:00,37.0,27.0,29.64,WSW,250,14.0,18.0,64,-99.99,,,-99.99,,2013-03-15 23:03:00,
2013-03-15 19:12:00,36.0,27.0,29.65,West,270,17.0,25.0,69,-99.99,,,-99.99,,2013-03-15 23:12:00,
2013-03-15 19:22:00,36.0,28.0,29.65,West,270,12.0,15.0,74,-99.99,,,-99.99,,2013-03-15 23:22:00,
2013-03-15 19:32:00,36.0,28.0,29.66,WNW,290,13.0,-999.0,74,-99.99,,,-99.99,,2013-03-15 23:32:00,
2013-03-15 19:42:00,36.0,28.0,29.66,NW,310,17.0,32.0,74,-99.99,,,-99.99,,2013-03-15 23:42:00,
2013-03-15 19:52:00,34.0,30.0,29.66,WNW,290,12.0,-999.0,86,-99.99,,,-99.99,,2013-03-15 23:52:00,
2013-03-15 20:03:00,34.0,30.0,29.66,WNW,290,12.0,-999.0,86,-99.99,,,-99.99,,2013-03-16 00:03:00,
2013-03-15 20:12:00,34.0,30.0,29.67,WNW,290,16.0,21.0,86,-99.99,,,-99.99,,2013-03-16 00:12:00,
2013-03-15 20:22:00,34.0,30.0,29.68,West,280,12.0,-999.0,86,-99.99,,,-99.99,,2013-03-16 00:22:00,
2013-03-15 20:32:00,34.0,30.0,29.68,West,280,12.0,-999.0,86,-99.99,,,-99.99,,2013-03-16 00:32:00,
2013-03-15 20:42:00,34.0,30.0,29.68,West,270,14.0,20.0,86,-99.99,,,-99.99,,2013-03-16 00:42:00,
2013-03-15 20:52:00,34.0,30.0,29.68,WNW,290,15.0,21.0,86,-99.99,,,-99.99,,2013-03-16 00:52:00,
2013-03-15 21:03:00,34.0,30.0,29.68,WNW,290,15.0,21.0,86,-99.99,,,-99.99,,2013-03-16 01:03:00,
2013-03-15 21:12:00,34.0,30.0,29.68,West,280,17.0,23.0,86,-99.99,,,-99.99,,2013-03-16 01:12:00,
2013-03-15 21:22:00,34.0,28.0,29.68,West,280,13.0,17.0,80,-99.99,,,-99.99,,2013-03-16 01:22:00,
2013-03-15 21:32:00,34.0,28.0,29.68,West,280,14.0,18.0,80,-99.99,,,-99.99,,2013-03-16 01:32:00,
2013-03-15 21:42:00,34.0,28.0,29.68,WNW,290,15.0,-999.0,80,-99.99,,,-99.99,,2013-03-16 01:42:00,
2013-03-15 21:52:00,34.0,28.0,29.69,WNW,290,15.0,22.0,80,-99.99,,,-99.99,,2013-03-16 01:52:00,
2013-03-15 22:02:00,34.0,28.0,29.69,WNW,290,15.0,22.0,80,-99.99,,,-99.99,,2013-03-16 02:02:00,
2013-03-15 22:12:00,34.0,27.0,29.69,WNW,290,15.0,22.0,74,-99.99,,,-99.99,,2013-03-16 02:12:00,
2013-03-15 22:23:00,34.0,27.0,29.70,WNW,300,14.0,22.0,74,-99.99,,,-99.99,,2013-03-16 02:23:00,
2013-03-15 22:32:00,34.0,27.0,29.70,WNW,290,16.0,24.0,74,-99.99,,,-99.99,,2013-03-16 02:32:00,
2013-03-15 22:42:00,34.0,27.0,29.71,WNW,300,14.0,24.0,74,-99.99,,,-99.99,,2013-03-16 02:42:00,
2013-03-15 22:52:00,32.0,27.0,29.71,WNW,300,12.0,23.0,80,-99.99,,,-99.99,,2013-03-16 02:52:00,
2013-03-15 23:02:00,32.0,27.0,29.71,WNW,300,12.0,23.0,80,-99.99,,,-99.99,,2013-03-16 03:02:00,
2013-03-15 23:12:00,32.0,25.0,29.72,WNW,290,14.0,18.0,74,-99.99,,,-99.99,,2013-03-16 03:12:00,
2013-03-15 23:22:00,32.0,25.0,29.73,WNW,290,14.0,20.0,74,-99.99,,,-99.99,,2013-03-16 03:22:00,
2013-03-15 23:32:00,32.0,25.0,29.74,WNW,290,12.0,20.0,74,-99.99,,,-99.99,,2013-03-16 03:32:00,
2013-03-15 23:43:00,32.0,25.0,29.74,WNW,290,12.0,-999.0,74,-99.99,,,-99.99,,2013-03-16 03:43:00,
2013-03-15 23:52:00,32.0,23.0,29.75,WNW,300,10.0,-999.0,69,-99.99,,,-99.99,,2013-03-16 03:52:00,